KGOP

Gatesville Municipal Airport

Gatesville, Texas, USA
METAR KGOP 210435Z AUTO 17012KT 10SM OVC011 16/14 A2998 RMK AO2
Observed Flight Rules
Jan-21 @ 04:35 UTC (17 minutes ago) Marginal Visual Flight Rules
Wind Visibility Clouds
170° at 12 knots 10 miles
  • Overcast at 1,100' AGL
Temperatures Readings
Current 16°C / 61°F
Dewpoint 14°C / 57°F
Humidity 88%
Altimeter 29.98" Hg
Pressure 1015 hPa
Elevation 276
METAR KGOP 210435Z AUTO 17012KT 10SM OVC011 16/14 A2998 RMK AO2
Observed Flight Rules
Jan-21 @ 04:35 UTC
(17 minutes ago)
MVFR
Wind Visibility
170° at 12 knots 10 miles
Clouds
  • Overcast at 1,100' AGL
Temperature Dewpoint
16°C / 61°F 14°C / 57°F
Humidity Altimeter Pressure
88% 29.98" Hg 1015 hPa